Terminal Aerodrome Forecast
Issued by NWS

Home | Current Version | Previous Version | Text Only | Print | Product List | Glossary On
Versions: 1 2 3 4 5 6 7 8 9 10 11 12
000
FTUS46 KSGX 192325
TAFPSP
TAF
KPSP 192325Z 2000/2024 11010KT P6SM FEW250
     FM200200 33010KT P6SM FEW250
      TEMPO 2002/2005 33012G20KT
     FM200600 VRB05KT P6SM FEW250
     FM201900 11009KT P6SM FEW250=

USA.gov is the U.S. government's official web portal to all federal, state and local government web resources and services.